< < Back
Terminal Aerodrome Forecast


Current Version              Previous Versions:   1  2  3  4  5  6  7  8  9  

Terminal Aerodrome Forecast

528
FTUS42 KJAX 291558 AAA
TAFSSI
TAF AMD
KSSI 291558Z 2916/3012 VRB04KT P6SM BKN250
     FM291800 13007KT P6SM BKN250
     FM300200 20005KT P6SM BKN250
     FM300900 24007KT P6SM BKN100 OVC250
     FM301100 26009KT P6SM BKN025 OVC050=

Latest METAR

480
SAUS70 KWBC 300200 RRB
MTRSSI
METAR KSSI 300153Z AUTO 20005KT 10SM CLR 12/09 A3020 RMK AO2 SLP227
T01170094


USA.gov is the U.S. government's official web portal to all federal, state and local government web resources and services.